Latest Weather Observations for Mount Gambier

IDS60801

Issued at 11:31 pm CST Thursday 21 September 2017 (issued every 30 minutes, with the page automatically refreshed every 10 minutes)

About weather observations | Map of weather stations | Latest weather observations for SA | Other Formats
Station Details ID: 026021 Name: MOUNT GAMBIER AERO Lat: -37.75 Lon: 140.77 Height: 63.0 m
Data from the previous 72 hours. | See also: Recent months at Mount Gambier
Date/Time
CST
Temp
°C
App
Temp
°C
Dew
Point
°C
Rel
Hum
%
Delta-T
°C
Wind Press
QNH
hPa
Press
MSL
hPa
Rain since
9am
mm
Dir  Spd
km/h
Gust
km/h
Spd
kts
Gust
kts
21/11:30pm 6.4 5.4 5.7 95 0.3 CALM 0 0 0 0 1011.2 1011.3 -
21/11:00pm 7.1 5.2 6.5 96 0.3 NNE 6 7 3 4 1011.4 1011.4 0.0
21/10:30pm 6.8 5.5 6.1 95 0.3 NNE 2 9 1 5 1011.6 1011.6 0.0
21/10:00pm 7.5 6.8 6.9 96 0.3 CALM 0 0 0 0 1011.8 1011.8 0.0
21/09:30pm 6.5 4.4 5.8 95 0.3 N 6 7 3 4 1012.0 1012.0 0.0
21/09:00pm 6.6 5.6 5.6 93 0.4 CALM 0 0 0 0 1012.3 1012.3 0.0
21/08:30pm 7.8 6.7 6.9 94 0.4 NW 2 6 1 3 1012.0 1012.0 0.0
21/08:00pm 8.1 6.3 7.0 93 0.5 NW 6 7 3 4 1011.8 1011.8 0.0
21/07:30pm 8.2 6.1 6.7 90 0.7 NW 7 7 4 4 1011.5 1011.5 0.0
21/07:00pm 9.3 7.3 7.1 86 1.0 WNW 7 9 4 5 1011.6 1011.6 0.0
21/06:30pm 10.5 8.5 7.2 80 1.6 WNW 7 7 4 4 1011.1 1011.1 0.0
21/06:00pm 11.7 9.1 7.8 77 1.9 W 11 15 6 8 1011.2 1011.2 0.0
21/05:30pm 13.0 10.1 8.1 72 2.4 WSW 13 19 7 10 1010.5 1010.6 0.0
21/05:00pm 13.7 9.9 7.7 67 3.0 WSW 17 24 9 13 1010.1 1010.2 0.0
21/04:30pm 13.9 10.0 8.5 70 2.7 WSW 19 26 10 14 1009.8 1009.9 0.0
21/04:00pm 14.6 11.2 9.0 69 2.9 WSW 17 22 9 12 1009.8 1009.9 0.0
21/03:30pm 14.6 10.8 9.0 69 2.9 WSW 19 22 10 12 1009.6 1009.7 0.0
21/03:00pm 14.7 10.5 8.4 66 3.2 W 20 26 11 14 1009.5 1009.6 0.0
21/02:30pm 15.2 11.3 9.6 69 2.9 WSW 20 28 11 15 1009.4 1009.5 0.0
21/02:00pm 16.2 12.2 9.2 63 3.6 WSW 20 30 11 16 1009.3 1009.4 0.0
21/01:30pm 16.6 12.9 10.0 65 3.5 W 20 26 11 14 1009.2 1009.3 0.0
21/01:00pm 16.4 13.0 10.5 68 3.1 SW 19 24 10 13 1009.1 1009.2 0.0
21/12:30pm 15.5 12.6 10.9 74 2.5 WSW 17 26 9 14 1009.1 1009.2 0.0
21/12:00pm 15.2 11.7 12.2 82 1.6 WSW 22 32 12 17 1009.2 1009.3 0.0
21/11:36am 15.3 12.3 12.1 81 1.7 W 19 26 10 14 1009.0 1009.1 0.0
21/11:30am 15.1 12.0 12.1 82 1.6 W 20 26 11 14 1009.0 1009.1 0.0
21/11:00am 14.5 10.9 12.0 85 1.4 WSW 22 30 12 16 1009.0 1009.1 0.0
21/10:39am 14.8 10.8 11.9 83 1.6 WSW 24 32 13 17 1008.8 1008.9 0.0
21/10:30am 15.1 11.7 12.4 84 1.5 W 22 30 12 16 1008.8 1008.9 0.0
21/10:00am 15.9 12.3 11.7 76 2.3 NW 22 28 12 15 1008.6 1008.7 0.0
21/09:30am 16.0 12.3 11.6 75 2.4 WNW 22 33 12 18 1008.4 1008.5 0.0
21/09:00am 16.5 13.4 10.4 67 3.2 NW 17 24 9 13 1008.4 1008.5 0.0
21/08:30am 14.9 11.1 6.0 55 4.3 NW 15 20 8 11 1008.4 1008.5 0.0
21/08:00am 14.1 10.3 6.0 58 3.9 N 15 22 8 12 1008.1 1008.2 0.0
21/07:30am 12.5 8.6 5.2 61 3.4 N 15 22 8 12 1007.8 1007.9 0.0
21/07:00am 11.6 8.4 5.0 64 3.0 NNW 11 15 6 8 1007.9 1008.0 0.0
21/06:30am 12.4 8.0 4.9 60 3.5 NW 17 26 9 14 1007.8 1007.9 0.0
21/06:00am 13.3 7.4 3.9 53 4.3 N 24 37 13 20 1006.9 1007.0 0.0
21/05:30am 14.3 7.9 3.2 47 5.0 N 26 39 14 21 1006.5 1006.6 0.0
21/05:00am 14.3 7.8 2.9 46 5.1 N 26 39 14 21 1006.3 1006.4 0.0
21/04:30am 14.3 7.6 3.7 49 4.9 N 28 39 15 21 1006.3 1006.4 0.0
21/04:00am 14.9 7.3 3.1 45 5.3 N 32 43 17 23 1006.5 1006.6 0.0
21/03:30am 15.1 8.0 3.3 45 5.4 N 30 41 16 22 1006.4 1006.5 0.0
21/03:00am 15.0 9.1 3.8 47 5.2 N 24 33 13 18 1006.6 1006.7 0.0
21/02:30am 15.0 8.3 3.5 46 5.3 N 28 35 15 19 1007.4 1007.5 0.0
21/02:00am 15.4 8.3 3.5 45 5.5 N 30 39 16 21 1007.4 1007.5 0.0
21/01:30am 15.2 8.2 4.0 47 5.2 N 30 41 16 22 1007.9 1008.0 0.0
21/01:00am 14.0 8.0 5.1 55 4.2 N 26 33 14 18 1008.2 1008.3 0.0
21/12:30am 13.3 8.7 5.5 59 3.7 N 19 26 10 14 1009.2 1009.3 0.0
21/12:00am 13.1 9.3 5.8 61 3.5 N 15 19 8 10 1009.5 1009.6 0.0
 
Date/Time
CST
Temp
°C
App
Temp
°C
Dew
Point
°C
Rel
Hum
%
Delta-T
°C
Wind Press
QNH
hPa
Press
MSL
hPa
Rain since
9am
mm
Dir  Spd
km/h
Gust
km/h
Spd
kts
Gust
kts
20/11:30pm 12.9 8.7 5.8 62 3.4 N 17 24 9 13 1009.8 1009.9 0.0
20/11:00pm 12.7 8.1 5.8 63 3.3 N 19 24 10 13 1010.0 1010.1 0.0
20/10:30pm 13.5 9.3 5.9 60 3.6 N 17 24 9 13 1010.6 1010.7 0.0
20/10:00pm 13.7 9.2 6.3 61 3.6 N 19 24 10 13 1011.0 1011.0 0.0
20/09:30pm 13.9 9.9 6.5 61 3.6 N 17 26 9 14 1011.0 1011.0 0.0
20/09:00pm 13.5 9.9 6.8 64 3.2 N 15 20 8 11 1011.3 1011.3 0.0
20/08:30pm 14.0 11.1 8.2 68 2.9 NE 13 15 7 8 1011.3 1011.3 0.0
20/08:00pm 12.5 10.4 8.2 75 2.1 ENE 9 9 5 5 1012.0 1012.0 0.0
20/07:30pm 13.8 12.4 9.0 73 2.4 ENE 6 9 3 5 1012.0 1012.0 0.0
20/07:00pm 14.1 11.4 8.9 71 2.6 NE 13 15 7 8 1011.8 1011.8 0.0
20/06:30pm 14.2 12.0 9.2 72 2.6 NNE 11 13 6 7 1012.2 1012.2 0.0
20/06:00pm 15.0 12.9 9.6 70 2.8 N 11 15 6 8 1012.0 1012.0 0.0
20/05:30pm 15.5 13.4 9.8 69 3.0 N 11 19 6 10 1012.2 1012.2 0.0
20/05:00pm 15.6 12.3 9.7 68 3.1 N 17 24 9 13 1012.6 1012.6 0.0
20/04:30pm 16.3 13.0 9.7 65 3.5 N 17 24 9 13 1012.0 1012.0 0.0
20/04:00pm 16.7 13.4 9.6 63 3.7 N 17 24 9 13 1012.5 1012.5 0.0
20/03:30pm 16.1 11.5 9.5 65 3.4 N 24 30 13 16 1012.4 1012.4 0.0
20/03:00pm 16.3 10.9 9.5 64 3.5 N 28 39 15 21 1012.6 1012.6 0.0
20/02:30pm 16.4 12.1 9.3 63 3.7 N 22 33 12 18 1013.3 1013.3 0.0
20/02:00pm 16.6 13.1 8.8 60 4.0 N 17 30 9 16 1013.9 1013.9 0.0
20/01:30pm 17.4 13.0 8.8 57 4.5 N 22 37 12 20 1014.4 1014.4 0.0
20/01:00pm 17.3 11.4 9.2 59 4.2 N 30 48 16 26 1014.6 1014.6 0.0
20/12:54pm 16.9 11.4 9.3 61 4.0 N 28 48 15 26 1014.6 1014.6 0.0
20/12:30pm 16.3 10.5 9.5 64 3.5 N 30 39 16 21 1015.2 1015.2 0.0
20/12:00pm 15.8 9.3 8.3 61 3.8 N 32 43 17 23 1015.8 1015.8 0.0
20/11:30am 15.7 9.3 8.4 62 3.7 N 32 43 17 23 1016.3 1016.3 0.0
20/11:00am 15.2 8.3 8.7 65 3.3 N 35 50 19 27 1017.0 1017.1 0.0
20/10:30am 13.6 7.3 7.6 67 3.0 N 30 37 16 20 1017.2 1017.3 0.0
20/10:00am 13.2 6.5 7.4 68 2.8 N 32 43 17 23 1017.5 1017.6 0.0
20/09:43am 12.8 6.7 6.8 67 2.9 N 28 46 15 25 1017.8 1017.9 0.0
20/09:30am 12.5 5.7 7.0 69 2.6 N 32 46 17 25 1018.2 1018.3 0.0
20/09:24am 12.4 6.3 6.7 68 2.7 N 28 46 15 25 1018.6 1018.7 0.0
20/09:00am 11.5 5.3 6.2 70 2.5 N 28 39 15 21 1018.6 1018.7 0.2
20/08:30am 10.6 4.1 6.6 76 1.9 N 30 41 16 22 1018.7 1018.8 0.2
20/08:00am 9.5 4.2 6.6 82 1.4 N 24 37 13 20 1019.1 1019.2 0.2
20/07:30am 7.8 3.3 5.9 88 0.9 N 19 24 10 13 1019.1 1019.2 0.2
20/07:00am 6.2 2.7 5.3 94 0.4 NNE 13 15 7 8 1019.3 1019.4 0.2
20/06:30am 5.0 1.7 4.3 95 0.3 NNE 11 13 6 7 1019.3 1019.4 0.2
20/06:00am 5.1 1.4 4.5 96 0.3 NNE 13 15 7 8 1019.0 1019.1 0.2
20/05:30am 4.3 -0.3 3.7 96 0.2 NNE 17 17 9 9 1018.9 1019.0 0.2
20/05:00am 4.3 0.5 3.7 96 0.2 NNE 13 15 7 8 1019.1 1019.2 0.2
20/04:30am 4.6 1.6 3.9 95 0.3 NNW 9 11 5 6 1019.4 1019.5 0.2
20/04:00am 5.5 1.9 4.9 96 0.3 N 13 17 7 9 1019.3 1019.4 0.2
20/03:30am 5.3 1.3 4.7 96 0.3 N 15 19 8 10 1019.3 1019.4 0.2
20/03:00am 5.2 2.3 4.6 96 0.3 N 9 13 5 7 1019.9 1020.0 0.2
20/02:30am 4.9 1.2 4.2 95 0.3 N 13 15 7 8 1020.0 1020.1 0.2
20/02:00am 4.9 1.2 4.2 95 0.3 N 13 19 7 10 1020.4 1020.5 0.2
20/01:30am 4.7 0.9 4.0 95 0.3 N 13 17 7 9 1020.4 1020.5 0.2
20/01:00am 4.8 1.0 3.9 94 0.4 N 13 15 7 8 1020.7 1020.8 0.2
20/12:30am 5.3 2.3 4.3 93 0.4 N 9 13 5 7 1020.7 1020.8 0.2
20/12:00am 6.0 3.1 4.8 92 0.5 N 9 13 5 7 1020.9 1021.0 0.2
 
Date/Time
CST
Temp
°C
App
Temp
°C
Dew
Point
°C
Rel
Hum
%
Delta-T
°C
Wind Press
QNH
hPa
Press
MSL
hPa
Rain since
9am
mm
Dir  Spd
km/h
Gust
km/h
Spd
kts
Gust
kts
19/11:30pm 6.4 3.2 4.9 90 0.7 N 11 13 6 7 1021.0 1021.1 0.2
19/11:00pm 7.1 4.0 5.4 89 0.8 N 11 15 6 8 1021.2 1021.3 0.2
19/10:30pm 8.2 5.2 6.2 87 0.9 NNW 11 15 6 8 1021.8 1021.9 0.2
19/10:00pm 8.7 5.8 6.7 87 0.9 N 11 17 6 9 1022.1 1022.2 0.2
19/09:30pm 8.0 5.1 6.6 91 0.6 N 11 15 6 8 1022.2 1022.3 0.2
19/09:00pm 7.1 4.5 6.0 93 0.5 NNW 9 13 5 7 1022.3 1022.4 0.2
19/08:30pm 6.3 3.5 5.1 92 0.5 NNW 9 11 5 6 1022.6 1022.7 0.2
19/08:00pm 6.4 3.5 4.6 88 0.8 NW 9 11 5 6 1022.5 1022.6 0.2
19/07:30pm 7.9 5.2 5.5 85 1.1 NW 9 11 5 6 1022.5 1022.6 0.2
19/07:00pm 8.9 5.8 5.5 79 1.5 WNW 11 13 6 7 1022.3 1022.4 0.2
19/06:30pm 9.2 6.5 5.4 77 1.7 WNW 9 13 5 7 1022.3 1022.4 0.2
19/06:00pm 10.3 7.2 5.5 72 2.2 WNW 11 13 6 7 1022.3 1022.4 0.2
19/05:30pm 11.0 8.0 6.2 72 2.2 W 11 15 6 8 1022.1 1022.2 0.2
19/05:00pm 11.4 7.7 6.3 71 2.4 W 15 17 8 9 1021.8 1021.9 0.2
19/04:30pm 12.1 7.9 5.9 66 2.9 WNW 17 24 9 13 1021.8 1021.9 0.2
19/04:00pm 12.3 7.7 5.7 64 3.1 WNW 19 28 10 15 1021.6 1021.7 0.2
19/03:30pm 12.5 8.0 5.9 64 3.1 W 19 26 10 14 1021.6 1021.7 0.2
19/03:00pm 13.0 8.3 5.9 62 3.3 WNW 20 26 11 14 1021.7 1021.8 0.2
19/02:30pm 12.7 7.9 5.8 63 3.2 W 20 30 11 16 1022.0 1022.1 0.2
19/02:00pm 13.8 8.6 7.3 65 3.2 WNW 24 30 13 16 1022.0 1022.1 0.0
19/01:30pm 13.6 8.7 5.0 56 4.0 W 20 28 11 15 1021.9 1022.0 0.0
19/01:00pm 13.1 7.8 5.0 58 3.8 W 22 30 12 16 1022.1 1022.2 0.0
19/12:30pm 12.9 8.2 6.0 63 3.3 SW 20 28 11 15 1022.4 1022.5 0.0
19/12:00pm 12.3 7.7 5.5 63 3.2 WSW 19 26 10 14 1022.6 1022.7 0.0
19/11:30am 11.4 6.9 6.3 71 2.4 WSW 19 28 10 15 1022.6 1022.7 0.0
19/11:00am 12.4 8.1 5.1 61 3.4 W 17 24 9 13 1022.3 1022.4 0.0
19/10:30am 11.8 6.9 5.2 64 3.0 W 20 26 11 14 1022.2 1022.3 0.0
19/10:00am 11.3 6.8 4.1 61 3.2 WSW 17 28 9 15 1022.1 1022.2 0.0
19/09:30am 11.7 6.1 5.6 66 2.8 SW 24 33 13 18 1022.0 1022.1 0.0
19/09:00am 10.6 6.1 6.0 73 2.1 SW 19 28 10 15 1022.1 1022.2 5.4
19/08:30am 11.0 6.5 6.2 72 2.2 WSW 19 30 10 16 1021.6 1021.7 5.4
19/08:00am 9.6 7.1 6.7 82 1.4 WNW 9 11 5 6 1021.3 1021.4 5.4
19/07:30am 8.4 5.3 5.7 83 1.2 WNW 11 13 6 7 1021.1 1021.2 5.4
19/07:00am 7.9 5.1 5.2 83 1.2 W 9 11 5 6 1020.7 1020.8 5.4
19/06:30am 6.9 4.0 4.6 85 1.0 W 9 13 5 7 1020.3 1020.4 5.4
19/06:00am 7.0 3.3 4.3 83 1.2 WSW 13 17 7 9 1019.7 1019.8 5.4
19/05:30am 6.9 3.1 3.9 81 1.3 WSW 13 17 7 9 1019.2 1019.3 5.4
19/05:00am 7.3 3.2 4.3 81 1.3 W 15 19 8 10 1018.7 1018.8 5.4
19/04:30am 7.9 2.6 4.8 81 1.4 W 22 28 12 15 1018.6 1018.7 5.4
19/04:00am 8.2 3.7 4.2 76 1.7 WSW 17 22 9 12 1018.2 1018.3 5.4
19/03:30am 8.6 3.8 4.8 77 1.7 SW 19 26 10 14 1017.9 1018.0 5.4
19/03:00am 8.1 2.8 5.0 81 1.4 WSW 22 30 12 16 1017.5 1017.6 5.4
19/02:30am 7.1 3.6 5.6 90 0.7 W 13 26 7 14 1017.4 1017.5 5.4
19/02:00am 7.0 3.5 5.3 89 0.8 WSW 13 17 7 9 1017.1 1017.2 5.2
19/01:30am 7.7 3.9 5.7 87 0.9 WSW 15 22 8 12 1017.1 1017.2 5.2
19/01:00am 8.0 3.7 5.1 82 1.3 W 17 20 9 11 1016.9 1017.0 4.8
19/12:30am 8.4 3.7 5.0 79 1.5 WSW 19 26 10 14 1016.9 1017.0 4.8
19/12:00am 8.1 1.7 5.4 83 1.2 WSW 28 39 15 21 1016.5 1016.5 4.8

Other Formats:

Comma delimited format used in spreadsheet applications
http://www.bom.gov.au/fwo/IDS60801/IDS60801.94821.axf

JavaScript Object Notation format (JSON) in row-major order
http://www.bom.gov.au/fwo/IDS60801/IDS60801.94821.json